• Join FlightAware (Why Join?)
  • Login
  • US Flag 
03:00PM EDT


 

Airport Tracker/Info


-or-


 

Live Flight TrackerFlight Track Log ✈ AAL2320 ✈ 03-Jul-2013 ✈ KDFW - KORD

Flight Track Log - Related Links

Times and Time Zones

All times are in EDT time to prevent confusion due to time zone crossing. See the AAL2320 flight status page for this flight to view local times or setup timezone preferences in your user account.

Time Position Orientation Groundspeed Altitude Reporting Facility
EDT Latitude Longitude Course Direction KTS MPH feet Rate Location/Type
06:50AM 32.8833 -97.0333 357° North 215 247 1,100  Level Dallas / Fort Worth TRACON
06:51AM 32.8333 -97.0167 164° South 207 238 3,100 2,100 Climbing Dallas / Fort Worth TRACON
06:52AM 32.8377 -96.8025 10° North  Level FlightAware Approximate
06:52AM 32.7833 -96.9667 140° Southeast 237 273 5,200  Level Dallas / Fort Worth TRACON
06:53AM 32.9517 -96.8000 North  Level FlightAware Approximate
06:53AM 32.8333 -96.9167 40° Northeast 245 282 7,800  Level Dallas / Fort Worth TRACON
06:54AM 33.0659 -96.8000 North  Level FlightAware Approximate
06:55AM 33.1798 -96.8081 357° North  Level FlightAware Approximate
06:55AM 33.0306 -96.8931 North 302 348 12,100  Level Fort Worth Center
06:56AM 33.1203 -96.8803 North 341 392 14,500 2,340 Climbing Fort Worth Center
06:57AM 33.2331 -96.8597 North 368 423 16,800 1,980 Climbing Fort Worth Center
06:58AM 33.3311 -96.8442 North 380 437 18,500 1,920 Climbing Fort Worth Center
06:59AM 33.4478 -96.8208 North 392 451 20,700 1,800 Climbing Fort Worth Center
07:00AM 33.5414 -96.7681 25° Northeast 392 451 22,200 1,500 Climbing Fort Worth Center
07:01AM 33.6539 -96.6947 28° Northeast 407 468 23,800 1,500 Climbing Fort Worth Center
07:02AM 33.7619 -96.6264 28° Northeast 417 480 25,200 1,380 Climbing Fort Worth Center
07:03AM 33.8658 -96.5556 30° Northeast 422 486 26,600 1,320 Climbing Fort Worth Center
07:04AM 33.9758 -96.4867 27° Northeast 432 497 27,900 1,320 Climbing Fort Worth Center
07:05AM 34.0839 -96.4106 30° Northeast 432 497 29,300 1,200 Climbing Fort Worth Center
07:06AM 34.1833 -96.3314 33° Northeast 427 491 30,400 1,140 Climbing Fort Worth Center
07:07AM 34.2847 -96.2472 34° Northeast 432 497 31,600 1,140 Climbing Fort Worth Center
07:08AM 34.3861 -96.1628 34° Northeast 437 503 32,700 660 Climbing Fort Worth Center
07:09AM 34.4897 -96.0781 34° Northeast 437 503 33,000 120 Climbing Fort Worth Center
07:10AM 34.5889 -95.9983 33° Northeast 437 503 33,000  Level Fort Worth Center
07:11AM 34.6922 -95.9133 34° Northeast 437 503 33,000  Level Fort Worth Center
07:12AM 34.7892 -95.8283 36° Northeast 437 503 33,000  Level Fort Worth Center
07:13AM 34.8903 -95.7403 36° Northeast 437 503 33,000  Level Fort Worth Center
07:15AM 35.0600 -95.5836 37° Northeast 441 507 33,000  Level Kansas City Center
07:16AM 35.1575 -95.4928 37° Northeast 440 506 33,000  Level Kansas City Center
07:17AM 35.2547 -95.4008 38° Northeast 441 507 33,000  Level Kansas City Center
07:18AM 35.3164 -95.3444 37° Northeast 442 509 33,000  Level Memphis Center
07:19AM 35.4139 -95.2533 37° Northeast 442 509 33,000  Level Memphis Center
07:20AM 35.5094 -95.1594 39° Northeast 437 503 33,000  Level Memphis Center
07:21AM 35.6067 -95.0681 37° Northeast 437 503 33,000  Level Memphis Center
07:22AM 35.7000 -94.9739 39° Northeast 437 503 33,000  Level Memphis Center
07:23AM 35.7972 -94.8819 37° Northeast 437 503 33,000  Level Memphis Center
07:24AM 35.8922 -94.7872 39° Northeast 437 503 33,000  Level Memphis Center
07:25AM 35.9894 -94.6950 37° Northeast 437 503 33,000  Level Memphis Center
07:26AM 36.0844 -94.6025 38° Northeast 437 503 33,000  Level Memphis Center
07:27AM 36.2333 -94.4564 38° Northeast 439 505 33,000  Level Kansas City Center
07:28AM 36.3278 -94.3633 38° Northeast 437 503 33,000  Level Kansas City Center
07:29AM 36.4228 -94.2700 38° Northeast 436 502 33,000  Level Kansas City Center
07:30AM 36.5186 -94.1753 38° Northeast 439 505 33,000  Level Kansas City Center
07:31AM 36.6150 -94.0797 38° Northeast 441 507 33,000  Level Kansas City Center
07:32AM 36.7106 -93.9842 39° Northeast 440 506 33,000  Level Kansas City Center
07:33AM 36.8072 -93.8894 38° Northeast 442 509 33,000  Level Kansas City Center
07:34AM 36.9019 -93.7925 39° Northeast 441 507 33,000  Level Kansas City Center
07:35AM 37.0006 -93.6942 39° Northeast 443 510 33,000  Level Kansas City Center
07:36AM 37.0972 -93.5989 38° Northeast 443 510 33,000  Level Kansas City Center
07:37AM 37.1922 -93.5011 39° Northeast 441 507 33,000  Level Kansas City Center
07:38AM 37.2878 -93.4042 39° Northeast 441 507 33,000  Level Kansas City Center
07:39AM 37.3842 -93.3075 39° Northeast 441 507 33,000  Level Kansas City Center
07:40AM 37.4836 -93.2169 36° Northeast 440 506 33,000  Level Kansas City Center
07:41AM 37.5833 -93.1261 36° Northeast 440 506 33,000  Level Kansas City Center
07:42AM 37.6839 -93.0314 37° Northeast 445 512 33,000  Level Kansas City Center
07:43AM 37.7833 -92.9386 36° Northeast 443 510 33,000  Level Kansas City Center
07:44AM 37.8847 -92.8442 36° Northeast 446 513 33,000  Level Kansas City Center
07:45AM 37.9881 -92.7467 37° Northeast 447 514 33,000  Level Kansas City Center
07:46AM 38.0878 -92.6517 37° Northeast 447 514 33,000  Level Kansas City Center
07:47AM 38.1878 -92.5592 36° Northeast 447 514 33,000  Level Kansas City Center
07:48AM 38.2889 -92.4656 36° Northeast 442 509 33,000  Level Kansas City Center
07:49AM 38.3883 -92.3686 37° Northeast 444 511 33,000  Level Kansas City Center
07:50AM 38.4864 -92.2742 37° Northeast 441 507 33,000  Level Kansas City Center
07:52AM 38.5850 -92.1803 37° Northeast 440 506 33,000  Level Kansas City Center
07:53AM 38.6842 -92.0839 37° Northeast 443 510 33,000  Level Kansas City Center
07:54AM 38.8022 -91.9700 37° Northeast 442 509 33,000  Level Kansas City Center
07:55AM 38.9011 -91.8753 37° Northeast 442 509 33,000  Level Kansas City Center
07:56AM 39.0006 -91.7781 37° Northeast 446 513 33,000  Level Kansas City Center
07:57AM 39.0950 -91.6867 37° Northeast 449 517 33,000  Level Kansas City Center
07:58AM 39.1953 -91.5892 37° Northeast 451 519 33,000  Level Kansas City Center
07:59AM 39.2986 -91.4883 37° Northeast 459 528 33,000  Level Kansas City Center
08:00AM 39.4019 -91.3861 37° Northeast 465 535 33,000  Level Kansas City Center
08:01AM 39.5036 -91.2858 37° Northeast 462 532 33,000  Level Kansas City Center
08:02AM 39.6064 -91.1839 37° Northeast 463 533 33,000  Level Kansas City Center
08:03AM 39.7083 -91.0825 37° Northeast 462 532 33,000  Level Kansas City Center
08:04AM 39.8136 -90.9747 38° Northeast 458 527 33,000  Level Kansas City Center
08:05AM 39.9083 -90.8783 38° Northeast 458 527 33,000  Level Kansas City Center
08:06AM 40.0119 -90.7781 37° Northeast 460 529 33,000  Level Kansas City Center
08:07AM 40.1108 -90.6750 39° Northeast 457 526 33,000  Level Kansas City Center
08:08AM 40.2339 -90.5508 38° Northeast 462 532 33,000  Level Kansas City Center
08:09AM 40.3344 -90.4481 38° Northeast 461 531 33,000  Level Kansas City Center
08:10AM 40.4353 -90.3439 38° Northeast 459 528 33,000  Level Kansas City Center
08:11AM 40.5356 -90.2417 38° Northeast 457 526 33,000 -120 Level Kansas City Center
08:12AM 40.6322 -90.1417 38° Northeast 458 527 32,800 -420 Descending Kansas City Center
08:13AM 40.7317 -90.0389 38° Northeast 458 527 32,200 -1,020 Descending Kansas City Center
08:14AM 40.8433 -89.9236 38° Northeast 464 534 30,800 -1,740 Descending Kansas City Center
08:15AM 40.9897 -89.7689 39° Northeast 463 533 28,000 -2,040 Descending Chicago Center
08:16AM 41.0861 -89.6669 39° Northeast 457 526 25,900 -2,040 Descending Chicago Center
08:17AM 41.1739 -89.5547 44° Northeast 445 512 23,900 -2,160 Descending Chicago Center
08:18AM 41.2292 -89.4200 61° Northeast 421 484 21,500 -2,400 Descending Chicago Center
08:19AM 41.2831 -89.2847 62° Northeast 413 475 19,100 -1,920 Descending Chicago Center
08:20AM 41.3314 -89.1592 63° Northeast 389 448 17,600 -1,920 Descending Chicago Center
08:21AM 41.3908 -89.0128 62° Northeast 378 435 15,200 -2,220 Descending Chicago Center
08:23AM 41.4378 -88.8956 62° Northeast 360 414 13,100 -1,800 Descending Chicago Center
08:24AM 41.4836 -88.7808 62° Northeast 353 406 11,600 -1,080 Descending Chicago Center
08:25AM 41.5283 -88.6667 62° Northeast 348 400 11,000 -300 Descending Chicago Center
08:26AM 41.5750 -88.5464 63° Northeast 361 415 11,100  Climbing Chicago Center
08:27AM 41.6278 -88.4317 58° Northeast 361 415 11,000 -60 Descending Chicago Center
08:28AM 41.6908 -88.3283 51° Northeast 356 410 11,000 -540 Level Chicago Center
08:29AM 41.7547 -88.2167 52° Northeast 310 357 10,000 -1,200 Descending Chicago Center
08:30AM 41.8036 -88.1317 52° Northeast 291 335 8,600 -1,440 Descending Chicago Center
08:31AM 41.8519 -88.0486 52° Northeast 284 327 7,100 -840 Descending Chicago Center
08:32AM 41.8831 -87.9567 66° East 282 325 7,000 -60 Descending Chicago Center
08:33AM 41.8842 -87.8528 89° East 280 322 7,000 -600 Level Chicago Center
08:34AM 41.8842 -87.7508 90° East 276 318 5,800 -1,020 Descending Chicago Center
08:35AM 41.8844 -87.6522 90° East 272 313 5,000 -420 Descending Chicago Center
08:36AM 41.8839 -87.5372 90° East 264 304 5,000  Level Chicago Center
08:37AM 41.8836 -87.4444 90° East 258 297 5,000  Level Chicago Center
08:38AM 41.9103 -87.3806 61° Northeast 241 277 5,000  Level Chicago Center
08:39AM 41.9606 -87.4181 331° Northwest 228 262 5,000  Level Chicago Center
08:40AM 41.9700 -87.5033 279° West 233 268 5,000 -60 Level Chicago Center
08:41AM 41.9692 -87.5872 269° West 231 266 4,900 -600 Descending Chicago Center
08:42AM 41.9692 -87.6875 270° West 229 264 3,800 -1,140 Descending Chicago Center